createdAt,value
2023-04-29T00:01:59.577Z,92.47
2023-04-29T00:04:29.086Z,92.25
2023-04-29T00:06:58.086Z,92.08
2023-04-29T00:09:27.030Z,92.14
2023-04-29T00:11:56.145Z,92.48
2023-04-29T00:14:25.607Z,92.44
2023-04-29T00:16:54.507Z,92.42
2023-04-29T00:19:23.438Z,92.08
2023-04-29T00:21:52.906Z,92.23
2023-04-29T00:24:21.832Z,92.32
2023-04-29T00:26:50.555Z,92.42
2023-04-29T00:29:19.681Z,92.27
2023-04-29T00:31:48.566Z,92.20
2023-04-29T00:34:17.930Z,92.57
2023-04-29T00:36:47.156Z,92.34
2023-04-29T00:39:16.101Z,91.77
2023-04-29T00:41:45.109Z,92.21
2023-04-29T00:44:13.941Z,91.76
2023-04-29T00:46:43.064Z,91.26
2023-04-29T00:49:14.342Z,91.38
2023-04-29T00:51:45.846Z,91.36
2023-04-29T00:54:15.040Z,91.33
2023-04-29T00:56:47.629Z,91.55
2023-04-29T00:59:17.813Z,91.15
2023-04-29T01:01:48.021Z,91.93
2023-04-29T01:04:18.587Z,92.06
2023-04-29T01:06:58.541Z,91.73
2023-04-29T01:09:44.045Z,91.82
2023-04-29T01:12:51.062Z,91.46
2023-04-29T01:15:27.491Z,91.76
2023-04-29T01:18:05.308Z,91.40
2023-04-29T01:20:35.651Z,91.46
2023-04-29T01:23:04.608Z,91.47
2023-04-29T01:25:33.634Z,91.45
2023-04-29T01:28:21.105Z,91.16
2023-04-29T01:31:48.884Z,91.48
2023-04-29T01:34:48.861Z,91.43
2023-04-29T01:37:35.396Z,90.83
2023-04-29T01:40:17.101Z,91.52
2023-04-29T01:43:05.096Z,91.23
2023-04-29T01:45:41.983Z,90.31
2023-04-29T01:48:11.001Z,90.66
2023-04-29T01:50:39.850Z,90.54
2023-04-29T01:53:13.153Z,90.35
2023-04-29T01:55:42.016Z,91.27
2023-04-29T01:58:17.923Z,91.51
2023-04-29T02:01:02.563Z,91.69
2023-04-29T02:04:00.324Z,92.06
2023-04-29T02:06:29.571Z,91.55
2023-04-29T02:09:02.080Z,92.03
2023-04-29T02:11:32.200Z,91.28
2023-04-29T02:14:01.399Z,91.63
2023-04-29T02:16:30.542Z,90.39
2023-04-29T02:19:03.362Z,90.58
2023-04-29T02:21:32.682Z,90.94
2023-04-29T02:24:03.189Z,91.21
2023-04-29T02:26:32.462Z,91.44
2023-04-29T02:29:01.521Z,90.77
2023-04-29T02:31:30.493Z,90.96
2023-04-29T02:33:59.439Z,90.92
2023-04-29T02:36:29.060Z,90.96
2023-04-29T02:38:57.975Z,89.98
2023-04-29T02:41:27.100Z,89.89
2023-04-29T02:43:55.956Z,89.78
2023-04-29T02:46:24.923Z,89.52
2023-04-29T02:48:54.875Z,89.98
2023-04-29T02:51:24.135Z,90.42
2023-04-29T02:53:53.008Z,90.43
2023-04-29T02:56:22.290Z,90.44
2023-04-29T02:58:51.257Z,89.88
2023-04-29T03:01:21.254Z,89.49
2023-04-29T03:03:50.881Z,88.45
2023-04-29T03:06:19.985Z,87.92
2023-04-29T03:08:48.833Z,87.93
2023-04-29T03:11:17.718Z,87.46
2023-04-29T03:13:46.690Z,88.50
2023-04-29T03:16:17.478Z,88.83
2023-04-29T03:18:46.629Z,88.96
2023-04-29T03:21:15.749Z,89.03
2023-04-29T03:23:45.357Z,88.92
2023-04-29T03:26:20.757Z,88.72
2023-04-29T03:28:49.578Z,88.99
2023-04-29T03:31:19.257Z,89.26
2023-04-29T03:33:48.353Z,89.26
2023-04-29T03:36:17.355Z,89.49
2023-04-29T03:38:55.419Z,89.59
2023-04-29T03:41:24.873Z,89.63
2023-04-29T03:43:55.509Z,90.15
2023-04-29T03:46:24.578Z,90.01
2023-04-29T03:48:56.539Z,88.99
2023-04-29T03:51:26.958Z,88.28
2023-04-29T03:54:08.153Z,88.34
2023-04-29T03:56:38.142Z,89.44
2023-04-29T03:59:07.105Z,89.29
2023-04-29T04:01:37.493Z,89.05
2023-04-29T04:04:07.521Z,88.59
2023-04-29T04:06:39.841Z,88.97
2023-04-29T04:09:09.056Z,88.34
2023-04-29T04:11:37.843Z,87.62
2023-04-29T04:14:07.678Z,87.85
2023-04-29T04:16:37.556Z,88.06
2023-04-29T04:19:06.717Z,88.23
2023-04-29T04:21:39.647Z,87.82
2023-04-29T04:24:10.761Z,87.14
2023-04-29T04:26:42.038Z,86.87
2023-04-29T04:29:19.531Z,86.61
2023-04-29T04:31:57.217Z,87.79
2023-04-29T04:34:26.907Z,88.62
2023-04-29T04:36:58.205Z,89.20
2023-04-29T04:39:27.501Z,88.46
2023-04-29T04:41:59.166Z,86.13
2023-04-29T04:44:31.259Z,86.48
2023-04-29T04:47:06.042Z,87.77
2023-04-29T04:49:58.479Z,88.66
2023-04-29T04:52:28.330Z,89.34
2023-04-29T04:55:20.913Z,88.86
2023-04-29T04:57:52.078Z,88.95
2023-04-29T05:00:21.625Z,88.69
2023-04-29T05:02:51.902Z,88.91
2023-04-29T05:05:20.816Z,88.43
2023-04-29T05:07:49.663Z,88.13
2023-04-29T05:10:26.909Z,88.29
2023-04-29T05:12:58.505Z,87.99
2023-04-29T05:15:27.972Z,88.56
2023-04-29T05:18:00.401Z,88.22
2023-04-29T05:20:29.598Z,88.35
2023-04-29T05:22:58.710Z,86.55
2023-04-29T05:25:28.501Z,84.55
2023-04-29T05:27:58.274Z,85.20
2023-04-29T05:30:29.321Z,86.61
2023-04-29T05:32:58.442Z,84.51
2023-04-29T05:35:27.631Z,85.19
2023-04-29T05:37:57.034Z,85.52
2023-04-29T05:40:35.384Z,87.01
2023-04-29T05:43:39.664Z,87.84
2023-04-29T05:46:08.692Z,88.75
2023-04-29T05:48:37.605Z,88.72
2023-04-29T05:51:06.776Z,88.92
2023-04-29T05:53:36.808Z,87.67
2023-04-29T05:56:09.116Z,87.04
2023-04-29T05:58:38.917Z,88.28
2023-04-29T06:01:08.766Z,88.79
2023-04-29T06:03:38.249Z,89.12
2023-04-29T06:06:26.849Z,88.56
2023-04-29T06:09:27.523Z,87.80
2023-04-29T06:11:59.718Z,87.68
2023-04-29T06:14:28.562Z,87.92
2023-04-29T06:16:58.287Z,88.33
2023-04-29T06:19:27.324Z,87.88
2023-04-29T06:21:56.450Z,87.55
2023-04-29T06:24:25.344Z,87.65
2023-04-29T06:26:54.316Z,86.50
2023-04-29T06:29:23.235Z,86.67
2023-04-29T06:31:54.743Z,85.65
2023-04-29T06:34:24.230Z,85.15
2023-04-29T06:37:11.445Z,84.57
2023-04-29T06:39:57.187Z,84.69
2023-04-29T06:42:46.316Z,85.75
2023-04-29T06:45:33.609Z,86.56
2023-04-29T06:48:11.196Z,86.26
2023-04-29T06:50:54.025Z,86.46
2023-04-29T06:53:22.914Z,87.37
2023-04-29T06:55:52.443Z,87.96
2023-04-29T06:58:22.694Z,88.69
2023-04-29T07:00:53.153Z,89.43
2023-04-29T07:03:24.414Z,89.56
2023-04-29T07:05:53.324Z,89.58
2023-04-29T07:08:22.256Z,89.90
2023-04-29T07:10:58.581Z,89.92
2023-04-29T07:13:30.398Z,89.89
2023-04-29T07:15:59.525Z,89.75
2023-04-29T07:18:29.624Z,90.05
2023-04-29T07:21:02.929Z,90.06
2023-04-29T07:23:32.388Z,90.19
2023-04-29T07:26:19.887Z,90.71
2023-04-29T07:28:52.800Z,91.07
2023-04-29T07:31:22.287Z,90.76
2023-04-29T07:33:51.323Z,90.65
2023-04-29T07:36:20.209Z,89.91
2023-04-29T07:38:49.178Z,89.32
2023-04-29T07:41:18.186Z,88.69
2023-04-29T07:43:47.118Z,89.06
2023-04-29T07:46:19.734Z,89.22
2023-04-29T07:48:49.750Z,89.15
2023-04-29T07:51:18.604Z,89.06
2023-04-29T07:53:47.478Z,89.09
2023-04-29T07:56:16.820Z,89.28
2023-04-29T07:58:47.551Z,88.75
2023-04-29T08:01:17.498Z,88.18
2023-04-29T08:03:47.334Z,87.88
2023-04-29T08:06:21.414Z,87.37
2023-04-29T08:08:53.702Z,87.28
2023-04-29T08:11:25.079Z,87.06
2023-04-29T08:13:55.443Z,87.35
2023-04-29T08:16:26.680Z,87.60
2023-04-29T08:18:56.447Z,88.08
2023-04-29T08:21:25.308Z,88.62
2023-04-29T08:23:56.276Z,88.91
2023-04-29T08:26:25.178Z,89.25
2023-04-29T08:28:54.364Z,89.70
2023-04-29T08:31:23.593Z,90.15
2023-04-29T08:33:52.811Z,90.80
2023-04-29T08:36:21.934Z,90.58
2023-04-29T08:38:53.402Z,91.05
2023-04-29T08:41:22.623Z,90.81
2023-04-29T08:43:51.876Z,90.79
2023-04-29T08:46:22.476Z,89.87
2023-04-29T08:48:53.141Z,90.23
2023-04-29T08:51:22.143Z,90.54
2023-04-29T08:53:51.403Z,90.14
2023-04-29T08:56:24.584Z,88.88
2023-04-29T08:59:01.266Z,88.48
2023-04-29T09:01:32.634Z,88.15
2023-04-29T09:04:27.715Z,88.00
2023-04-29T09:07:00.793Z,88.27
2023-04-29T09:09:30.555Z,88.48
2023-04-29T09:11:59.659Z,88.91
2023-04-29T09:14:34.074Z,88.63
2023-04-29T09:17:03.237Z,88.59
2023-04-29T09:19:34.158Z,88.49
2023-04-29T09:22:04.930Z,88.81
2023-04-29T09:24:33.755Z,88.92
2023-04-29T09:27:04.020Z,89.22
2023-04-29T09:29:33.693Z,89.45
2023-04-29T09:32:19.104Z,89.54
2023-04-29T09:34:48.046Z,90.10
2023-04-29T09:37:28.551Z,90.24
2023-04-29T09:39:57.533Z,90.63
2023-04-29T09:42:26.452Z,90.81
2023-04-29T09:44:55.529Z,91.12
2023-04-29T09:47:33.403Z,90.97
2023-04-29T09:50:17.023Z,91.20
2023-04-29T09:52:46.060Z,91.45
2023-04-29T09:55:16.522Z,91.54
2023-04-29T09:57:46.481Z,90.89
2023-04-29T10:00:16.833Z,90.99
2023-04-29T10:02:52.148Z,91.03
2023-04-29T10:05:23.629Z,91.06
2023-04-29T10:07:52.984Z,91.12
2023-04-29T10:10:23.913Z,91.43
2023-04-29T10:12:55.388Z,91.58
2023-04-29T10:15:33.017Z,92.26
2023-04-29T10:18:16.116Z,92.83
2023-04-29T10:20:48.207Z,92.98
2023-04-29T10:23:18.564Z,92.95
2023-04-29T10:25:49.021Z,93.13
2023-04-29T10:28:20.120Z,93.11
2023-04-29T10:30:55.562Z,92.53
2023-04-29T10:33:25.873Z,92.18
2023-04-29T10:35:56.882Z,92.46
2023-04-29T10:38:37.634Z,92.08
2023-04-29T10:41:28.993Z,91.76
2023-04-29T10:44:02.150Z,92.13
2023-04-29T10:46:32.714Z,91.76
2023-04-29T10:49:07.369Z,92.11
2023-04-29T10:51:44.415Z,92.05
2023-04-29T10:54:15.944Z,91.87
2023-04-29T10:56:54.933Z,92.27
2023-04-29T10:59:43.658Z,92.21
2023-04-29T11:02:13.363Z,92.40
2023-04-29T11:05:08.586Z,92.28
2023-04-29T11:07:38.444Z,92.37
2023-04-29T11:10:08.481Z,91.85
2023-04-29T11:12:37.389Z,92.03
2023-04-29T11:15:11.648Z,91.82
2023-04-29T11:17:41.855Z,91.81
2023-04-29T11:20:14.683Z,91.91
2023-04-29T11:22:52.703Z,92.04
2023-04-29T11:25:21.590Z,92.03
2023-04-29T11:27:52.079Z,91.94
2023-04-29T11:30:22.884Z,91.98
2023-04-29T11:32:52.598Z,91.79
2023-04-29T11:35:21.754Z,91.93
2023-04-29T11:37:50.652Z,91.88
2023-04-29T11:40:19.467Z,92.06
2023-04-29T11:42:49.812Z,92.05
2023-04-29T11:45:19.540Z,92.17
2023-04-29T11:47:49.952Z,92.20
2023-04-29T11:50:20.913Z,92.24
2023-04-29T11:52:50.551Z,92.58
2023-04-29T11:55:20.518Z,92.60
2023-04-29T11:57:52.850Z,92.38
2023-04-29T12:00:22.839Z,92.01
2023-04-29T12:02:52.056Z,91.99
2023-04-29T12:05:21.363Z,92.04
2023-04-29T12:07:51.672Z,92.34
2023-04-29T12:10:21.904Z,92.69
2023-04-29T12:12:51.276Z,92.64
2023-04-29T12:15:20.277Z,92.80
2023-04-29T12:17:49.363Z,92.68
2023-04-29T12:20:18.465Z,92.82
2023-04-29T12:22:47.890Z,92.65
2023-04-29T12:25:17.357Z,92.55
2023-04-29T12:27:46.526Z,92.99
2023-04-29T12:30:15.616Z,92.78
2023-04-29T12:32:45.867Z,92.99
2023-04-29T12:35:18.821Z,92.89
2023-04-29T12:37:51.904Z,92.90
2023-04-29T12:40:21.584Z,93.01
2023-04-29T12:42:50.500Z,92.66
2023-04-29T12:45:34.999Z,92.80
2023-04-29T12:48:09.076Z,93.15
2023-04-29T12:50:43.946Z,92.79
2023-04-29T12:53:13.394Z,92.98
2023-04-29T12:55:42.425Z,92.92
2023-04-29T12:58:11.332Z,92.95
2023-04-29T13:00:40.937Z,92.01
2023-04-29T13:03:10.266Z,92.29
2023-04-29T13:05:39.508Z,92.56
2023-04-29T13:08:08.889Z,92.58
2023-04-29T13:10:37.736Z,92.94
2023-04-29T13:13:06.849Z,93.12
2023-04-29T13:15:36.188Z,92.59
2023-04-29T13:18:05.428Z,92.72
2023-04-29T13:20:40.808Z,92.83
2023-04-29T13:23:12.738Z,93.17
2023-04-29T13:25:41.692Z,92.93
2023-04-29T13:28:10.611Z,92.76
2023-04-29T13:30:39.575Z,93.04
2023-04-29T13:33:12.255Z,93.08
2023-04-29T13:35:42.883Z,92.89
2023-04-29T13:38:11.789Z,92.45
2023-04-29T13:40:45.926Z,92.70
2023-04-29T13:43:23.507Z,92.35
2023-04-29T13:46:01.666Z,92.45
2023-04-29T13:49:08.133Z,92.28
2023-04-29T14:04:01.031Z,92.30
2023-04-29T14:06:32.920Z,92.31
2023-04-29T14:09:03.573Z,92.24
2023-04-29T14:11:37.147Z,92.56
2023-04-29T14:14:06.285Z,92.67
2023-04-29T14:16:35.118Z,92.41
2023-04-29T14:19:04.923Z,92.40
2023-04-29T14:21:34.246Z,92.49
2023-04-29T14:24:04.062Z,92.68
2023-04-29T14:26:32.964Z,92.84
2023-04-29T14:29:01.872Z,92.44
2023-04-29T14:31:35.316Z,92.63
2023-04-29T14:34:04.723Z,93.04
2023-04-29T14:36:33.731Z,93.16
2023-04-29T14:39:04.466Z,93.06
2023-04-29T14:41:33.329Z,93.02
2023-04-29T14:44:02.142Z,92.92
2023-04-29T14:46:33.134Z,92.98
2023-04-29T14:49:02.525Z,92.75
2023-04-29T14:51:31.823Z,92.93
2023-04-29T14:54:00.631Z,92.71
2023-04-29T14:56:29.611Z,92.59
2023-04-29T14:58:58.477Z,92.72
2023-04-29T15:01:29.281Z,92.44
2023-04-29T15:04:00.776Z,92.38
2023-04-29T15:06:30.059Z,92.15
2023-04-29T15:08:58.983Z,91.62
2023-04-29T15:11:28.060Z,91.87
2023-04-29T15:13:57.227Z,91.63
2023-04-29T15:16:26.111Z,91.08
2023-04-29T15:18:55.115Z,91.25
2023-04-29T15:21:24.067Z,91.18
2023-04-29T15:23:52.887Z,91.51
2023-04-29T15:26:22.487Z,91.03
2023-04-29T15:28:51.446Z,91.79
2023-04-29T15:31:21.802Z,91.63
2023-04-29T15:33:55.834Z,91.72
2023-04-29T15:36:33.804Z,92.32
2023-04-29T15:39:02.708Z,92.01
2023-04-29T15:41:31.539Z,91.88
2023-04-29T15:44:00.310Z,92.45
2023-04-29T15:46:31.535Z,92.08
2023-04-29T15:49:01.304Z,92.36
2023-04-29T15:51:30.136Z,91.92
2023-04-29T15:53:59.044Z,92.14
2023-04-29T15:56:27.826Z,92.09
2023-04-29T15:58:57.266Z,91.66
2023-04-29T16:01:28.833Z,92.19
2023-04-29T16:03:59.091Z,92.07
2023-04-29T16:06:28.772Z,92.18
2023-04-29T16:08:58.064Z,91.88
2023-04-29T16:11:27.684Z,92.12
2023-04-29T16:13:56.594Z,91.54
2023-04-29T16:16:26.076Z,92.10
2023-04-29T16:18:55.164Z,91.79
2023-04-29T16:21:24.740Z,92.43
2023-04-29T16:23:53.774Z,92.22
2023-04-29T16:26:22.717Z,91.81
2023-04-29T16:28:52.292Z,91.58
2023-04-29T16:31:21.146Z,91.52
2023-04-29T16:33:50.095Z,91.59
2023-04-29T16:36:19.134Z,91.69
2023-04-29T16:38:48.262Z,91.10
2023-04-29T16:41:17.073Z,91.05
2023-04-29T16:43:46.296Z,91.24
2023-04-29T16:46:15.317Z,91.52
2023-04-29T16:48:44.155Z,91.35
2023-04-29T16:51:13.325Z,91.84
2023-04-29T16:53:42.135Z,91.19
2023-04-29T16:56:11.724Z,91.54
2023-04-29T16:58:40.527Z,91.12
2023-04-29T17:01:10.356Z,91.28
2023-04-29T17:03:39.523Z,90.84
2023-04-29T17:06:08.463Z,90.78
2023-04-29T17:08:37.709Z,91.61
2023-04-29T17:11:06.894Z,91.05
2023-04-29T17:13:35.747Z,90.89
2023-04-29T17:16:04.831Z,91.04
2023-04-29T17:18:33.778Z,90.66
2023-04-29T17:21:03.312Z,90.50
2023-04-29T17:23:32.481Z,90.67
2023-04-29T17:26:01.943Z,90.90
2023-04-29T17:28:31.273Z,90.40
2023-04-29T17:31:01.782Z,91.02
2023-04-29T17:33:35.654Z,90.78
2023-04-29T17:36:05.764Z,91.22
2023-04-29T17:38:34.764Z,90.50
2023-04-29T17:41:04.247Z,91.25
2023-04-29T17:43:35.973Z,90.90
2023-04-29T17:46:04.986Z,90.90
2023-04-29T17:48:33.897Z,90.96
2023-04-29T17:51:02.667Z,90.83
2023-04-29T17:53:33.605Z,91.43
2023-04-29T17:56:02.386Z,91.24
2023-04-29T17:58:31.250Z,91.29
2023-04-29T18:01:00.947Z,90.90
2023-04-29T18:03:31.430Z,91.45
2023-04-29T18:06:00.254Z,90.82
2023-04-29T18:08:29.118Z,91.36
2023-04-29T18:10:57.908Z,90.65
2023-04-29T18:13:27.216Z,90.54
2023-04-29T18:15:56.205Z,90.30
2023-04-29T18:18:25.145Z,90.72
2023-04-29T18:20:53.930Z,90.38
2023-04-29T18:23:23.297Z,90.48
2023-04-29T18:25:52.166Z,90.48
2023-04-29T18:28:25.112Z,90.32
2023-04-29T18:30:56.233Z,90.35
2023-04-29T18:33:27.075Z,90.34
2023-04-29T18:35:56.176Z,89.88
2023-04-29T18:38:25.603Z,90.30
2023-04-29T18:40:54.451Z,90.44
2023-04-29T18:43:28.829Z,90.09
2023-04-29T18:46:00.217Z,90.26
2023-04-29T18:48:30.266Z,90.34
2023-04-29T18:51:04.703Z,90.56
2023-04-29T18:53:34.073Z,90.71
2023-04-29T18:56:03.841Z,90.58
2023-04-29T18:58:32.807Z,90.50
2023-04-29T19:01:03.680Z,90.52
2023-04-29T19:03:32.880Z,90.12
2023-04-29T19:06:01.862Z,90.49
2023-04-29T19:08:30.728Z,90.41
2023-04-29T19:11:00.791Z,90.75
2023-04-29T19:13:29.994Z,90.67
2023-04-29T19:15:59.926Z,90.80
2023-04-29T19:18:29.149Z,90.70
2023-04-29T19:20:58.109Z,90.43
2023-04-29T19:23:26.909Z,90.74
2023-04-29T19:25:55.873Z,90.24
2023-04-29T19:28:24.691Z,90.38
2023-04-29T19:30:53.596Z,90.39
2023-04-29T19:33:22.519Z,90.65
2023-04-29T19:35:51.311Z,90.83
2023-04-29T19:38:20.287Z,90.84
2023-04-29T19:40:49.520Z,90.67
2023-04-29T19:43:18.569Z,91.24
2023-04-29T19:45:47.560Z,90.84
2023-04-29T19:48:16.954Z,91.04
2023-04-29T19:50:45.936Z,90.82
2023-04-29T19:53:14.823Z,90.63
2023-04-29T19:55:43.769Z,90.76
2023-04-29T19:58:12.825Z,90.80
2023-04-29T20:00:42.247Z,90.59
2023-04-29T20:03:11.353Z,90.78
2023-04-29T20:05:41.630Z,90.65
2023-04-29T20:08:10.579Z,90.75
2023-04-29T20:10:39.400Z,90.55
2023-04-29T20:13:08.495Z,90.42
2023-04-29T20:15:37.326Z,90.57
2023-04-29T20:18:06.139Z,90.28
2023-04-29T20:20:34.971Z,90.12
2023-04-29T20:23:03.857Z,90.22
2023-04-29T20:25:33.634Z,90.53
2023-04-29T20:28:03.282Z,90.78
2023-04-29T20:30:32.526Z,90.16
2023-04-29T20:33:01.868Z,90.39
2023-04-29T20:35:30.990Z,90.50
2023-04-29T20:37:59.949Z,90.35
2023-04-29T20:40:28.734Z,90.69
2023-04-29T20:42:58.245Z,90.78
2023-04-29T20:45:27.160Z,90.52
2023-04-29T20:47:56.038Z,90.43
2023-04-29T20:50:25.324Z,90.43
2023-04-29T20:52:54.104Z,90.34
2023-04-29T20:55:23.152Z,90.55
2023-04-29T20:57:51.926Z,90.58
2023-04-29T21:00:21.967Z,90.87
2023-04-29T21:02:51.351Z,90.81
2023-04-29T21:05:20.325Z,90.58
2023-04-29T21:07:49.888Z,90.64
2023-04-29T21:10:18.839Z,90.62
2023-04-29T21:12:49.396Z,90.67
2023-04-29T21:15:18.317Z,90.79
2023-04-29T21:17:47.462Z,90.44
2023-04-29T21:20:17.763Z,90.75
2023-04-29T21:22:46.620Z,90.39
2023-04-29T21:25:15.523Z,90.54
2023-04-29T21:27:44.343Z,90.71
2023-04-29T21:30:13.670Z,90.63
2023-04-29T21:32:42.646Z,90.71
2023-04-29T21:35:11.840Z,90.84
2023-04-29T21:37:40.665Z,90.43
2023-04-29T21:40:10.155Z,90.99
2023-04-29T21:42:39.361Z,90.55
2023-04-29T21:45:08.788Z,90.94
2023-04-29T21:47:37.766Z,90.77
2023-04-29T21:50:08.381Z,90.71
2023-04-29T21:52:37.443Z,91.01
2023-04-29T21:55:07.235Z,90.85
2023-04-29T21:57:44.152Z,90.85
2023-04-29T22:00:40.794Z,91.06
2023-04-29T22:03:11.604Z,90.98
2023-04-29T22:05:40.352Z,90.97
2023-04-29T22:08:09.332Z,90.67
2023-04-29T22:10:40.652Z,90.89
2023-04-29T22:13:09.485Z,91.15
2023-04-29T22:15:38.492Z,90.89
2023-04-29T22:18:07.549Z,91.29
2023-04-29T22:20:36.636Z,91.08
2023-04-29T22:23:05.545Z,91.11
2023-04-29T22:25:34.302Z,91.23
2023-04-29T22:28:03.114Z,91.56
2023-04-29T22:30:31.901Z,91.74
2023-04-29T22:33:00.744Z,91.97
2023-04-29T22:35:29.633Z,92.12
2023-04-29T22:37:58.567Z,92.49
2023-04-29T22:40:27.458Z,92.66
2023-04-29T22:42:56.241Z,92.07
2023-04-29T22:45:24.969Z,92.47
2023-04-29T22:47:53.776Z,92.67
2023-04-29T22:50:22.613Z,92.25
2023-04-29T22:52:51.460Z,92.11
2023-04-29T22:55:20.218Z,92.25
2023-04-29T22:57:52.268Z,92.38
2023-04-29T23:00:22.678Z,92.53
2023-04-29T23:02:51.764Z,92.83
2023-04-29T23:05:20.600Z,92.45
2023-04-29T23:07:49.686Z,92.41
2023-04-29T23:10:18.514Z,92.76
2023-04-29T23:12:47.360Z,92.50
2023-04-29T23:15:16.368Z,92.88
2023-04-29T23:17:45.292Z,92.82
2023-04-29T23:20:14.285Z,92.82
2023-04-29T23:22:43.032Z,92.77
2023-04-29T23:25:11.952Z,92.23
2023-04-29T23:27:40.838Z,92.59
2023-04-29T23:30:10.368Z,92.68
2023-04-29T23:32:39.282Z,91.93
2023-04-29T23:35:09.146Z,91.94
2023-04-29T23:37:39.144Z,91.57
2023-04-29T23:40:09.836Z,91.24
2023-04-29T23:42:38.664Z,91.44
2023-04-29T23:45:08.144Z,91.23
2023-04-29T23:47:37.084Z,90.92
2023-04-29T23:50:06.513Z,90.93
2023-04-29T23:52:35.573Z,91.01
2023-04-29T23:55:04.999Z,91.27
2023-04-29T23:57:33.830Z,91.33
